sensor_id;sensor_type;location;lat;lon;timestamp;pressure;altitude;pressure_sealevel;temperature;humidity
13314;BME280;6725;48.112;11.604;2022-08-04T00:01:17;95126.34;;;21.24;100.00
13314;BME280;6725;48.112;11.604;2022-08-04T00:04:22;95121.00;;;21.21;100.00
13314;BME280;6725;48.112;11.604;2022-08-04T00:06:57;95117.81;;;21.13;100.00
13314;BME280;6725;48.112;11.604;2022-08-04T00:09:42;95123.78;;;21.06;100.00
13314;BME280;6725;48.112;11.604;2022-08-04T00:12:10;95112.19;;;21.08;100.00
13314;BME280;6725;48.112;11.604;2022-08-04T00:14:37;95117.63;;;21.02;100.00
13314;BME280;6725;48.112;11.604;2022-08-04T00:17:06;95113.63;;;21.03;100.00
13314;BME280;6725;48.112;11.604;2022-08-04T00:19:37;95107.28;;;21.03;100.00
13314;BME280;6725;48.112;11.604;2022-08-04T00:22:08;95118.31;;;20.97;100.00
13314;BME280;6725;48.112;11.604;2022-08-04T00:24:34;95110.78;;;20.89;100.00
13314;BME280;6725;48.112;11.604;2022-08-04T00:27:00;95099.88;;;20.85;100.00
13314;BME280;6725;48.112;11.604;2022-08-04T00:29:26;95095.84;;;20.86;100.00
13314;BME280;6725;48.112;11.604;2022-08-04T00:31:54;95091.25;;;20.83;100.00
13314;BME280;6725;48.112;11.604;2022-08-04T00:34:19;95098.53;;;20.81;100.00
13314;BME280;6725;48.112;11.604;2022-08-04T00:36:46;95089.16;;;20.78;100.00
13314;BME280;6725;48.112;11.604;2022-08-04T00:39:13;95087.78;;;20.74;100.00
13314;BME280;6725;48.112;11.604;2022-08-04T01:00:41;95059.59;;;20.37;100.00
13314;BME280;6725;48.112;11.604;2022-08-04T01:03:20;95049.34;;;20.29;100.00
13314;BME280;6725;48.112;11.604;2022-08-04T01:06:11;95035.63;;;20.25;100.00
13314;BME280;6725;48.112;11.604;2022-08-04T01:17:22;95031.41;;;20.15;100.00
13314;BME280;6725;48.112;11.604;2022-08-04T01:20:00;95025.28;;;20.11;100.00
13314;BME280;6725;48.112;11.604;2022-08-04T01:30:48;95028.63;;;19.92;100.00
13314;BME280;6725;48.112;11.604;2022-08-04T01:33:16;95031.69;;;19.94;100.00
13314;BME280;6725;48.112;11.604;2022-08-04T01:35:54;95029.38;;;19.92;100.00
13314;BME280;6725;48.112;11.604;2022-08-04T01:38:36;95030.69;;;19.82;100.00
13314;BME280;6725;48.112;11.604;2022-08-04T01:41:06;95024.56;;;19.78;100.00
13314;BME280;6725;48.112;11.604;2022-08-04T01:43:40;95017.81;;;19.70;100.00
13314;BME280;6725;48.112;11.604;2022-08-04T01:46:09;95016.88;;;19.73;100.00
13314;BME280;6725;48.112;11.604;2022-08-04T01:48:37;95021.78;;;19.78;100.00
13314;BME280;6725;48.112;11.604;2022-08-04T01:51:06;95012.97;;;19.80;100.00
13314;BME280;6725;48.112;11.604;2022-08-04T01:53:34;95013.75;;;19.80;100.00
13314;BME280;6725;48.112;11.604;2022-08-04T01:56:01;95017.47;;;19.77;100.00
13314;BME280;6725;48.112;11.604;2022-08-04T01:58:31;95009.81;;;19.72;100.00
13314;BME280;6725;48.112;11.604;2022-08-04T02:01:03;95017.22;;;19.66;100.00
13314;BME280;6725;48.112;11.604;2022-08-04T02:03:31;95009.72;;;19.58;100.00
13314;BME280;6725;48.112;11.604;2022-08-04T02:11:26;94984.09;;;19.48;100.00
13314;BME280;6725;48.112;11.604;2022-08-04T02:13:53;94980.38;;;19.51;100.00
13314;BME280;6725;48.112;11.604;2022-08-04T02:19:03;94980.09;;;19.49;100.00
13314;BME280;6725;48.112;11.604;2022-08-04T02:21:30;94976.91;;;19.41;100.00
13314;BME280;6725;48.112;11.604;2022-08-04T02:24:01;94962.47;;;19.37;100.00
13314;BME280;6725;48.112;11.604;2022-08-04T02:26:28;94970.31;;;19.39;100.00
13314;BME280;6725;48.112;11.604;2022-08-04T02:29:00;94966.63;;;19.33;100.00
13314;BME280;6725;48.112;11.604;2022-08-04T02:31:42;94956.22;;;19.28;100.00
13314;BME280;6725;48.112;11.604;2022-08-04T02:34:27;94956.22;;;19.28;100.00
13314;BME280;6725;48.112;11.604;2022-08-04T02:36:54;94955.16;;;19.25;100.00
13314;BME280;6725;48.112;11.604;2022-08-04T02:39:21;94954.69;;;19.27;100.00
13314;BME280;6725;48.112;11.604;2022-08-04T02:41:48;94946.97;;;19.22;100.00
13314;BME280;6725;48.112;11.604;2022-08-04T02:44:19;94949.00;;;19.21;100.00
13314;BME280;6725;48.112;11.604;2022-08-04T02:46:45;94938.66;;;19.22;100.00
13314;BME280;6725;48.112;11.604;2022-08-04T02:49:13;94943.91;;;19.20;100.00
13314;BME280;6725;48.112;11.604;2022-08-04T02:51:41;94941.16;;;19.20;100.00
13314;BME280;6725;48.112;11.604;2022-08-04T02:54:07;94934.53;;;19.17;100.00
13314;BME280;6725;48.112;11.604;2022-08-04T02:56:34;94939.00;;;19.15;100.00
13314;BME280;6725;48.112;11.604;2022-08-04T02:59:08;94926.09;;;19.12;100.00
13314;BME280;6725;48.112;11.604;2022-08-04T03:01:35;94925.81;;;19.10;100.00
13314;BME280;6725;48.112;11.604;2022-08-04T03:04:32;94920.44;;;19.06;100.00
13314;BME280;6725;48.112;11.604;2022-08-04T03:07:23;94914.16;;;19.06;100.00
13314;BME280;6725;48.112;11.604;2022-08-04T03:13:07;94907.78;;;18.91;100.00
13314;BME280;6725;48.112;11.604;2022-08-04T03:15:57;94897.03;;;18.84;100.00
13314;BME280;6725;48.112;11.604;2022-08-04T03:24:02;94881.72;;;18.74;100.00
13314;BME280;6725;48.112;11.604;2022-08-04T03:40:55;94873.72;;;18.76;100.00
13314;BME280;6725;48.112;11.604;2022-08-04T03:52:40;94873.13;;;18.72;100.00
13314;BME280;6725;48.112;11.604;2022-08-04T04:00:17;94879.84;;;18.80;100.00
13314;BME280;6725;48.112;11.604;2022-08-04T04:19:53;95014.56;;;20.71;100.00
13314;BME280;6725;48.112;11.604;2022-08-04T04:25:03;95075.97;;;21.31;100.00
13314;BME280;6725;48.112;11.604;2022-08-04T04:30:41;95117.94;;;22.11;100.00
13314;BME280;6725;48.112;11.604;2022-08-04T04:36:17;95152.50;;;22.80;100.00
13314;BME280;6725;48.112;11.604;2022-08-04T04:39:00;95166.84;;;22.93;100.00
13314;BME280;6725;48.112;11.604;2022-08-04T04:50:10;95190.06;;;23.24;100.00
13314;BME280;6725;48.112;11.604;2022-08-04T04:52:46;95194.56;;;23.22;100.00
13314;BME280;6725;48.112;11.604;2022-08-04T04:55:23;95198.19;;;23.28;100.00
13314;BME280;6725;48.112;11.604;2022-08-04T04:57:52;95206.81;;;23.10;100.00
13314;BME280;6725;48.112;11.604;2022-08-04T05:00:19;95198.72;;;23.32;100.00
13314;BME280;6725;48.112;11.604;2022-08-04T05:06:26;95227.38;;;24.09;100.00
13314;BME280;6725;48.112;11.604;2022-08-04T05:14:38;95256.75;;;25.67;100.00
13314;BME280;6725;48.112;11.604;2022-08-04T05:17:24;95259.91;;;26.02;100.00
13314;BME280;6725;48.112;11.604;2022-08-04T05:22:35;95271.94;;;26.63;97.58
13314;BME280;6725;48.112;11.604;2022-08-04T05:25:06;95267.03;;;26.91;95.43
13314;BME280;6725;48.112;11.604;2022-08-04T05:27:38;95269.16;;;27.48;89.74
13314;BME280;6725;48.112;11.604;2022-08-04T05:30:05;95272.59;;;27.87;87.87
13314;BME280;6725;48.112;11.604;2022-08-04T05:32:56;95271.28;;;28.64;82.21
13314;BME280;6725;48.112;11.604;2022-08-04T05:35:41;95270.44;;;28.98;79.14
13314;BME280;6725;48.112;11.604;2022-08-04T05:38:09;95270.34;;;29.33;78.07
13314;BME280;6725;48.112;11.604;2022-08-04T05:40:37;95271.63;;;30.12;74.53
13314;BME280;6725;48.112;11.604;2022-08-04T05:43:03;95272.38;;;30.12;74.90
13314;BME280;6725;48.112;11.604;2022-08-04T05:45:33;95275.31;;;30.25;72.45
13314;BME280;6725;48.112;11.604;2022-08-04T05:48:02;95276.53;;;30.30;71.61
13314;BME280;6725;48.112;11.604;2022-08-04T05:50:31;95284.75;;;30.28;71.50
13314;BME280;6725;48.112;11.604;2022-08-04T05:52:58;95275.00;;;30.92;68.82
13314;BME280;6725;48.112;11.604;2022-08-04T05:55:24;95281.78;;;31.93;63.52
13314;BME280;6725;48.112;11.604;2022-08-04T05:57:50;95274.28;;;32.29;60.73
13314;BME280;6725;48.112;11.604;2022-08-04T06:00:17;95275.28;;;32.52;60.82
13314;BME280;6725;48.112;11.604;2022-08-04T06:02:45;95268.25;;;33.07;58.59
13314;BME280;6725;48.112;11.604;2022-08-04T06:05:13;95269.09;;;33.36;56.97
13314;BME280;6725;48.112;11.604;2022-08-04T06:07:39;95264.47;;;33.05;57.28
13314;BME280;6725;48.112;11.604;2022-08-04T06:10:05;95271.19;;;32.94;56.95
13314;BME280;6725;48.112;11.604;2022-08-04T06:12:36;95271.72;;;33.13;56.58
13314;BME280;6725;48.112;11.604;2022-08-04T06:15:02;95271.13;;;33.63;55.98
13314;BME280;6725;48.112;11.604;2022-08-04T06:17:32;95265.03;;;33.88;54.53
13314;BME280;6725;48.112;11.604;2022-08-04T06:20:00;95271.19;;;34.14;53.74
13314;BME280;6725;48.112;11.604;2022-08-04T06:22:28;95276.78;;;33.92;54.08
13314;BME280;6725;48.112;11.604;2022-08-04T06:24:54;95277.00;;;33.65;53.86
13314;BME280;6725;48.112;11.604;2022-08-04T06:27:23;95283.59;;;33.89;52.85
13314;BME280;6725;48.112;11.604;2022-08-04T06:29:49;95284.03;;;33.72;54.18
13314;BME280;6725;48.112;11.604;2022-08-04T06:32:16;95283.31;;;34.15;53.23
13314;BME280;6725;48.112;11.604;2022-08-04T06:34:57;95277.09;;;34.97;48.80
13314;BME280;6725;48.112;11.604;2022-08-04T06:37:25;95280.88;;;35.37;48.13
13314;BME280;6725;48.112;11.604;2022-08-04T06:39:51;95274.34;;;35.89;46.70
13314;BME280;6725;48.112;11.604;2022-08-04T06:42:20;95272.72;;;36.57;44.67
13314;BME280;6725;48.112;11.604;2022-08-04T06:44:49;95270.34;;;37.03;43.63
13314;BME280;6725;48.112;11.604;2022-08-04T06:47:17;95271.88;;;37.04;42.30
13314;BME280;6725;48.112;11.604;2022-08-04T06:49:48;95273.47;;;37.22;41.71
13314;BME280;6725;48.112;11.604;2022-08-04T06:52:15;95275.13;;;37.25;42.39
13314;BME280;6725;48.112;11.604;2022-08-04T06:54:50;95278.16;;;37.27;41.33
13314;BME280;6725;48.112;11.604;2022-08-04T06:57:19;95274.63;;;37.95;40.88
13314;BME280;6725;48.112;11.604;2022-08-04T06:59:50;95277.72;;;38.23;39.16
13314;BME280;6725;48.112;11.604;2022-08-04T07:02:19;95271.72;;;37.85;39.89
13314;BME280;6725;48.112;11.604;2022-08-04T07:04:48;95282.00;;;37.64;40.66
13314;BME280;6725;48.112;11.604;2022-08-04T07:07:14;95281.88;;;37.37;41.58
13314;BME280;6725;48.112;11.604;2022-08-04T07:09:40;95279.84;;;37.47;41.15
13314;BME280;6725;48.112;11.604;2022-08-04T07:12:06;95277.25;;;38.17;39.06
13314;BME280;6725;48.112;11.604;2022-08-04T07:14:33;95278.09;;;39.43;36.89
13314;BME280;6725;48.112;11.604;2022-08-04T07:17:03;95282.91;;;39.04;36.71
13314;BME280;6725;48.112;11.604;2022-08-04T07:19:30;95274.53;;;39.62;35.64
13314;BME280;6725;48.112;11.604;2022-08-04T07:21:59;95275.53;;;39.38;36.18
13314;BME280;6725;48.112;11.604;2022-08-04T07:24:32;95273.25;;;40.20;34.42
13314;BME280;6725;48.112;11.604;2022-08-04T07:26:58;95278.28;;;40.88;33.42
13314;BME280;6725;48.112;11.604;2022-08-04T07:29:25;95280.81;;;40.93;33.59
13314;BME280;6725;48.112;11.604;2022-08-04T07:31:52;95282.47;;;40.96;32.91
13314;BME280;6725;48.112;11.604;2022-08-04T07:34:18;95284.50;;;40.84;32.18
13314;BME280;6725;48.112;11.604;2022-08-04T07:36:44;95272.41;;;40.86;31.92
13314;BME280;6725;48.112;11.604;2022-08-04T07:39:10;95282.00;;;41.09;31.28
13314;BME280;6725;48.112;11.604;2022-08-04T07:41:36;95293.88;;;41.25;30.61
13314;BME280;6725;48.112;11.604;2022-08-04T07:44:02;95281.13;;;41.47;30.35
13314;BME280;6725;48.112;11.604;2022-08-04T07:46:28;95290.84;;;41.23;30.97
13314;BME280;6725;48.112;11.604;2022-08-04T07:48:53;95283.88;;;41.87;30.43
13314;BME280;6725;48.112;11.604;2022-08-04T07:51:19;95280.16;;;42.38;29.46
13314;BME280;6725;48.112;11.604;2022-08-04T07:53:46;95275.53;;;42.66;28.87
13314;BME280;6725;48.112;11.604;2022-08-04T07:56:12;95275.94;;;42.39;28.80
13314;BME280;6725;48.112;11.604;2022-08-04T07:58:39;95274.03;;;42.65;28.66
13314;BME280;6725;48.112;11.604;2022-08-04T08:01:05;95270.13;;;42.28;29.10
13314;BME280;6725;48.112;11.604;2022-08-04T08:03:31;95271.63;;;42.61;28.87
13314;BME280;6725;48.112;11.604;2022-08-04T08:05:56;95275.53;;;41.70;29.43
13314;BME280;6725;48.112;11.604;2022-08-04T08:08:21;95280.91;;;40.65;31.49
13314;BME280;6725;48.112;11.604;2022-08-04T08:10:47;95276.19;;;40.79;30.50
13314;BME280;6725;48.112;11.604;2022-08-04T08:13:14;95270.16;;;41.24;30.58
13314;BME280;6725;48.112;11.604;2022-08-04T08:15:40;95272.97;;;42.60;28.60
13314;BME280;6725;48.112;11.604;2022-08-04T08:18:08;95272.53;;;42.10;29.46
13314;BME280;6725;48.112;11.604;2022-08-04T08:20:33;95278.53;;;42.14;29.62
13314;BME280;6725;48.112;11.604;2022-08-04T08:23:00;95275.59;;;43.00;28.60
13314;BME280;6725;48.112;11.604;2022-08-04T08:25:26;95281.13;;;41.68;29.95
13314;BME280;6725;48.112;11.604;2022-08-04T08:27:51;95280.16;;;42.38;29.03
13314;BME280;6725;48.112;11.604;2022-08-04T08:30:17;95270.31;;;42.85;28.34
13314;BME280;6725;48.112;11.604;2022-08-04T08:32:42;95270.66;;;43.12;28.05
13314;BME280;6725;48.112;11.604;2022-08-04T08:35:08;95275.25;;;42.62;28.76
13314;BME280;6725;48.112;11.604;2022-08-04T08:37:36;95275.47;;;42.54;27.92
13314;BME280;6725;48.112;11.604;2022-08-04T08:43:04;95275.31;;;42.73;27.82
13314;BME280;6725;48.112;11.604;2022-08-04T08:48:47;95261.88;;;43.68;27.11
13314;BME280;6725;48.112;11.604;2022-08-04T08:51:31;95269.03;;;44.26;25.82
13314;BME280;6725;48.112;11.604;2022-08-04T08:54:07;95264.03;;;44.15;26.45
13314;BME280;6725;48.112;11.604;2022-08-04T08:56:54;95269.00;;;43.78;26.15
13314;BME280;6725;48.112;11.604;2022-08-04T09:02:43;95271.66;;;45.23;25.03
13314;BME280;6725;48.112;11.604;2022-08-04T09:10:35;95275.91;;;45.47;23.91
13314;BME280;6725;48.112;11.604;2022-08-04T09:13:43;95278.66;;;44.68;24.58
13314;BME280;6725;48.112;11.604;2022-08-04T09:16:15;95269.59;;;44.98;24.21
13314;BME280;6725;48.112;11.604;2022-08-04T09:21:23;95268.63;;;43.72;25.51
13314;BME280;6725;48.112;11.604;2022-08-04T09:24:02;95265.41;;;43.20;25.58
13314;BME280;6725;48.112;11.604;2022-08-04T09:26:59;95274.47;;;41.14;27.45
13314;BME280;6725;48.112;11.604;2022-08-04T09:29:47;95272.72;;;42.56;26.31
13314;BME280;6725;48.112;11.604;2022-08-04T09:35:32;95264.59;;;43.77;25.29
13314;BME280;6725;48.112;11.604;2022-08-04T09:41:22;95278.03;;;42.18;26.47
13314;BME280;6725;48.112;11.604;2022-08-04T09:44:11;95261.44;;;42.81;26.35
13314;BME280;6725;48.112;11.604;2022-08-04T09:46:45;95269.31;;;42.37;25.96
13314;BME280;6725;48.112;11.604;2022-08-04T09:52:08;95252.69;;;42.35;26.74
13314;BME280;6725;48.112;11.604;2022-08-04T09:55:01;95255.94;;;44.00;25.81
13314;BME280;6725;48.112;11.604;2022-08-04T09:57:52;95254.09;;;45.05;23.87
13314;BME280;6725;48.112;11.604;2022-08-04T10:00:19;95247.22;;;45.78;22.65
13314;BME280;6725;48.112;11.604;2022-08-04T10:02:52;95259.00;;;45.55;21.95
13314;BME280;6725;48.112;11.604;2022-08-04T10:05:22;95264.94;;;45.32;22.07
13314;BME280;6725;48.112;11.604;2022-08-04T10:11:32;95256.50;;;43.05;23.87
13314;BME280;6725;48.112;11.604;2022-08-04T10:14:16;95253.19;;;42.64;24.42
13314;BME280;6725;48.112;11.604;2022-08-04T10:19:26;95253.31;;;42.89;23.88
13314;BME280;6725;48.112;11.604;2022-08-04T10:27:28;95252.44;;;44.38;21.52
13314;BME280;6725;48.112;11.604;2022-08-04T10:30:00;95254.53;;;44.75;21.61
13314;BME280;6725;48.112;11.604;2022-08-04T10:32:41;95257.28;;;44.22;21.63
13314;BME280;6725;48.112;11.604;2022-08-04T10:35:21;95247.84;;;43.85;22.14
13314;BME280;6725;48.112;11.604;2022-08-04T10:40:41;95243.19;;;44.28;22.27
13314;BME280;6725;48.112;11.604;2022-08-04T10:48:55;95247.34;;;44.50;22.03
13314;BME280;6725;48.112;11.604;2022-08-04T10:51:45;95243.06;;;44.63;21.60
13314;BME280;6725;48.112;11.604;2022-08-04T10:56:53;95240.03;;;45.25;21.00
13314;BME280;6725;48.112;11.604;2022-08-04T10:59:25;95237.44;;;44.28;22.30
13314;BME280;6725;48.112;11.604;2022-08-04T11:01:56;95241.63;;;43.54;22.33
13314;BME280;6725;48.112;11.604;2022-08-04T11:04:36;95233.28;;;44.82;21.32
13314;BME280;6725;48.112;11.604;2022-08-04T11:07:03;95231.00;;;44.67;21.66
13314;BME280;6725;48.112;11.604;2022-08-04T11:09:29;95229.00;;;44.32;22.10
13314;BME280;6725;48.112;11.604;2022-08-04T11:12:02;95234.63;;;43.34;22.21
13314;BME280;6725;48.112;11.604;2022-08-04T11:14:43;95226.81;;;42.91;22.71
13314;BME280;6725;48.112;11.604;2022-08-04T11:17:18;95235.19;;;42.31;22.97
13314;BME280;6725;48.112;11.604;2022-08-04T11:22:35;95228.72;;;43.55;21.58
13314;BME280;6725;48.112;11.604;2022-08-04T11:25:09;95222.59;;;42.48;22.88
13314;BME280;6725;48.112;11.604;2022-08-04T11:28:08;95237.09;;;42.17;23.30
13314;BME280;6725;48.112;11.604;2022-08-04T11:31:07;95226.97;;;43.16;22.07
13314;BME280;6725;48.112;11.604;2022-08-04T11:33:40;95222.28;;;42.65;22.93
13314;BME280;6725;48.112;11.604;2022-08-04T11:36:31;95228.31;;;42.80;22.87
13314;BME280;6725;48.112;11.604;2022-08-04T11:39:07;95230.53;;;41.63;23.39
13314;BME280;6725;48.112;11.604;2022-08-04T11:41:39;95228.97;;;41.50;23.84
13314;BME280;6725;48.112;11.604;2022-08-04T11:44:06;95224.00;;;41.93;23.45
13314;BME280;6725;48.112;11.604;2022-08-04T11:46:42;95219.22;;;41.86;23.67
13314;BME280;6725;48.112;11.604;2022-08-04T11:49:23;95215.78;;;41.57;23.64
13314;BME280;6725;48.112;11.604;2022-08-04T11:51:52;95217.72;;;40.63;25.30
13314;BME280;6725;48.112;11.604;2022-08-04T11:54:20;95225.91;;;40.38;25.27
13314;BME280;6725;48.112;11.604;2022-08-04T11:56:46;95219.88;;;39.58;25.70
13314;BME280;6725;48.112;11.604;2022-08-04T11:59:11;95213.91;;;39.27;26.63
13314;BME280;6725;48.112;11.604;2022-08-04T12:04:34;95215.38;;;38.20;27.63
13314;BME280;6725;48.112;11.604;2022-08-04T12:07:10;95213.63;;;38.07;27.99
13314;BME280;6725;48.112;11.604;2022-08-04T12:12:24;95213.09;;;37.33;28.91
13314;BME280;6725;48.112;11.604;2022-08-04T12:14:58;95212.25;;;37.23;28.60
13314;BME280;6725;48.112;11.604;2022-08-04T12:17:35;95204.63;;;37.01;29.15
13314;BME280;6725;48.112;11.604;2022-08-04T12:20:03;95205.81;;;36.74;29.59
13314;BME280;6725;48.112;11.604;2022-08-04T12:22:40;95203.59;;;36.89;29.42
13314;BME280;6725;48.112;11.604;2022-08-04T12:25:09;95210.72;;;36.98;29.87
13314;BME280;6725;48.112;11.604;2022-08-04T12:27:46;95206.75;;;36.76;29.88
13314;BME280;6725;48.112;11.604;2022-08-04T12:30:15;95202.88;;;36.81;29.65
13314;BME280;6725;48.112;11.604;2022-08-04T12:32:47;95198.84;;;37.09;29.73
13314;BME280;6725;48.112;11.604;2022-08-04T12:37:58;95202.34;;;36.50;30.73
13314;BME280;6725;48.112;11.604;2022-08-04T12:40:41;95195.91;;;36.50;31.41
13314;BME280;6725;48.112;11.604;2022-08-04T12:43:35;95202.47;;;36.60;31.43
13314;BME280;6725;48.112;11.604;2022-08-04T12:46:04;95201.28;;;36.38;30.95
13314;BME280;6725;48.112;11.604;2022-08-04T12:48:32;95188.97;;;36.36;31.08
13314;BME280;6725;48.112;11.604;2022-08-04T12:50:59;95187.59;;;36.44;31.58
13314;BME280;6725;48.112;11.604;2022-08-04T12:53:28;95191.09;;;36.60;31.56
13314;BME280;6725;48.112;11.604;2022-08-04T12:55:56;95188.41;;;36.37;31.25
13314;BME280;6725;48.112;11.604;2022-08-04T12:58:27;95193.22;;;36.52;31.43
13314;BME280;6725;48.112;11.604;2022-08-04T13:00:57;95191.66;;;36.34;31.24
13314;BME280;6725;48.112;11.604;2022-08-04T13:03:28;95187.53;;;36.52;31.54
13314;BME280;6725;48.112;11.604;2022-08-04T13:05:55;95194.03;;;36.45;31.12
13314;BME280;6725;48.112;11.604;2022-08-04T13:08:21;95190.34;;;36.27;32.08
13314;BME280;6725;48.112;11.604;2022-08-04T13:10:51;95182.41;;;35.86;31.85
13314;BME280;6725;48.112;11.604;2022-08-04T13:13:23;95178.00;;;35.93;32.62
13314;BME280;6725;48.112;11.604;2022-08-04T13:15:58;95175.03;;;35.76;32.28
13314;BME280;6725;48.112;11.604;2022-08-04T13:18:26;95181.53;;;35.61;32.80
13314;BME280;6725;48.112;11.604;2022-08-04T13:20:52;95180.94;;;36.10;32.47
13314;BME280;6725;48.112;11.604;2022-08-04T13:23:18;95172.59;;;36.12;31.70
13314;BME280;6725;48.112;11.604;2022-08-04T13:25:50;95169.50;;;36.25;31.34
13314;BME280;6725;48.112;11.604;2022-08-04T13:28:20;95166.19;;;36.04;31.02
13314;BME280;6725;48.112;11.604;2022-08-04T13:30:51;95167.16;;;35.52;32.12
13314;BME280;6725;48.112;11.604;2022-08-04T13:33:18;95169.84;;;35.50;32.45
13314;BME280;6725;48.112;11.604;2022-08-04T13:35:45;95160.34;;;35.47;32.79
13314;BME280;6725;48.112;11.604;2022-08-04T13:38:13;95164.88;;;35.58;32.23
13314;BME280;6725;48.112;11.604;2022-08-04T13:40:41;95159.47;;;35.30;32.75
13314;BME280;6725;48.112;11.604;2022-08-04T13:43:08;95160.38;;;35.40;32.45
13314;BME280;6725;48.112;11.604;2022-08-04T13:45:35;95153.16;;;35.46;31.87
13314;BME280;6725;48.112;11.604;2022-08-04T13:48:01;95149.28;;;35.66;31.76
13314;BME280;6725;48.112;11.604;2022-08-04T13:50:28;95150.88;;;35.92;32.46
13314;BME280;6725;48.112;11.604;2022-08-04T13:53:00;95144.66;;;35.86;32.50
13314;BME280;6725;48.112;11.604;2022-08-04T13:55:34;95143.84;;;35.93;32.93
13314;BME280;6725;48.112;11.604;2022-08-04T14:01:00;95137.38;;;36.00;33.40
13314;BME280;6725;48.112;11.604;2022-08-04T14:03:29;95140.84;;;35.91;33.23
13314;BME280;6725;48.112;11.604;2022-08-04T14:08:49;95132.38;;;36.08;32.78
13314;BME280;6725;48.112;11.604;2022-08-04T14:11:17;95129.28;;;36.21;33.50
13314;BME280;6725;48.112;11.604;2022-08-04T14:13:43;95130.06;;;36.14;32.97
13314;BME280;6725;48.112;11.604;2022-08-04T14:16:19;95122.81;;;36.20;33.46
13314;BME280;6725;48.112;11.604;2022-08-04T14:18:45;95127.41;;;36.16;33.17
13314;BME280;6725;48.112;11.604;2022-08-04T14:21:13;95131.19;;;36.18;33.45
13314;BME280;6725;48.112;11.604;2022-08-04T14:26:15;95129.66;;;36.25;33.47
13314;BME280;6725;48.112;11.604;2022-08-04T14:28:41;95128.56;;;36.13;32.89
13314;BME280;6725;48.112;11.604;2022-08-04T14:33:39;95124.22;;;35.80;33.79
13314;BME280;6725;48.112;11.604;2022-08-04T14:36:06;95123.50;;;35.72;34.30
13314;BME280;6725;48.112;11.604;2022-08-04T14:38:50;95120.63;;;35.79;34.77
13314;BME280;6725;48.112;11.604;2022-08-04T14:41:18;95121.28;;;35.95;34.37
13314;BME280;6725;48.112;11.604;2022-08-04T14:43:49;95130.16;;;36.06;34.19
13314;BME280;6725;48.112;11.604;2022-08-04T14:46:15;95124.94;;;35.88;34.13
13314;BME280;6725;48.112;11.604;2022-08-04T14:49:06;95118.75;;;35.67;34.74
13314;BME280;6725;48.112;11.604;2022-08-04T14:51:43;95115.63;;;35.48;34.90
13314;BME280;6725;48.112;11.604;2022-08-04T14:54:11;95126.66;;;35.29;34.78
13314;BME280;6725;48.112;11.604;2022-08-04T14:56:41;95118.09;;;35.44;34.84
13314;BME280;6725;48.112;11.604;2022-08-04T14:59:15;95116.78;;;35.45;35.05
13314;BME280;6725;48.112;11.604;2022-08-04T15:01:40;95110.38;;;35.37;34.96
13314;BME280;6725;48.112;11.604;2022-08-04T15:04:07;95122.50;;;35.37;34.67
13314;BME280;6725;48.112;11.604;2022-08-04T15:06:34;95115.72;;;35.18;35.03
13314;BME280;6725;48.112;11.604;2022-08-04T15:09:05;95108.06;;;35.43;34.24
13314;BME280;6725;48.112;11.604;2022-08-04T15:11:32;95110.72;;;35.41;34.76
13314;BME280;6725;48.112;11.604;2022-08-04T15:13:58;95113.06;;;35.67;34.60
13314;BME280;6725;48.112;11.604;2022-08-04T15:16:28;95109.88;;;35.63;34.30
13314;BME280;6725;48.112;11.604;2022-08-04T15:18:54;95104.38;;;35.10;34.30
13314;BME280;6725;48.112;11.604;2022-08-04T15:21:20;95111.09;;;35.45;34.09
13314;BME280;6725;48.112;11.604;2022-08-04T15:23:47;95108.16;;;35.60;34.76
13314;BME280;6725;48.112;11.604;2022-08-04T15:26:28;95104.53;;;35.67;34.37
13314;BME280;6725;48.112;11.604;2022-08-04T15:29:26;95095.06;;;35.72;34.47
13314;BME280;6725;48.112;11.604;2022-08-04T15:31:45;95098.81;;;35.74;34.62
13314;BME280;6725;48.112;11.604;2022-08-04T15:34:11;95095.03;;;35.79;34.63
13314;BME280;6725;48.112;11.604;2022-08-04T15:36:52;95102.97;;;35.81;34.48
13314;BME280;6725;48.112;11.604;2022-08-04T15:42:10;95093.47;;;35.46;34.05
13314;BME280;6725;48.112;11.604;2022-08-04T15:45:11;95088.44;;;35.22;34.02
13314;BME280;6725;48.112;11.604;2022-08-04T15:47:40;95086.53;;;35.17;34.62
13314;BME280;6725;48.112;11.604;2022-08-04T15:50:10;95087.84;;;35.24;33.80
13314;BME280;6725;48.112;11.604;2022-08-04T15:55:39;95080.09;;;35.32;34.66
13314;BME280;6725;48.112;11.604;2022-08-04T15:58:08;95085.16;;;35.41;34.71
13314;BME280;6725;48.112;11.604;2022-08-04T16:03:48;95072.44;;;35.42;34.19
13314;BME280;6725;48.112;11.604;2022-08-04T16:21:57;95072.59;;;35.04;33.68
13314;BME280;6725;48.112;11.604;2022-08-04T16:24:35;95076.00;;;35.03;33.77
13314;BME280;6725;48.112;11.604;2022-08-04T16:27:03;95068.56;;;35.07;33.75
13314;BME280;6725;48.112;11.604;2022-08-04T16:29:33;95074.84;;;35.06;34.07
13314;BME280;6725;48.112;11.604;2022-08-04T16:34:43;95061.59;;;35.01;33.94
13314;BME280;6725;48.112;11.604;2022-08-04T16:37:12;95070.03;;;34.46;39.17
13314;BME280;6725;48.112;11.604;2022-08-04T16:39:38;95063.19;;;34.27;41.07
13314;BME280;6725;48.112;11.604;2022-08-04T16:48:02;95068.84;;;33.97;40.52
13314;BME280;6725;48.112;11.604;2022-08-04T16:50:32;95072.56;;;33.76;39.45
13314;BME280;6725;48.112;11.604;2022-08-04T16:52:58;95062.16;;;33.56;42.02
13314;BME280;6725;48.112;11.604;2022-08-04T16:55:27;95059.31;;;33.56;43.48
13314;BME280;6725;48.112;11.604;2022-08-04T16:57:54;95055.75;;;33.63;42.47
13314;BME280;6725;48.112;11.604;2022-08-04T17:00:35;95050.22;;;33.50;41.91
13314;BME280;6725;48.112;11.604;2022-08-04T17:03:05;95046.41;;;33.40;42.55
13314;BME280;6725;48.112;11.604;2022-08-04T17:05:31;95049.25;;;33.40;39.24
13314;BME280;6725;48.112;11.604;2022-08-04T17:07:58;95049.06;;;33.38;40.72
13314;BME280;6725;48.112;11.604;2022-08-04T17:10:47;95047.91;;;33.34;42.51
13314;BME280;6725;48.112;11.604;2022-08-04T17:13:33;95044.78;;;33.17;40.69